createdAt,value
2018-12-14T00:01:40.990Z,1.50
2018-12-14T00:04:15.273Z,1.40
2018-12-14T00:06:50.521Z,1.40
2018-12-14T00:09:24.875Z,1.40
2018-12-14T00:11:59.431Z,1.40
2018-12-14T00:14:33.871Z,1.30
2018-12-14T00:17:08.137Z,1.30
2018-12-14T00:19:42.385Z,1.30
2018-12-14T00:22:16.596Z,1.20
2018-12-14T00:24:51.069Z,1.30
2018-12-14T00:27:25.718Z,1.30
2018-12-14T00:30:00.336Z,1.30
2018-12-14T00:32:34.609Z,1.30
2018-12-14T00:35:08.810Z,1.30
2018-12-14T00:37:43.265Z,1.20
2018-12-14T00:40:17.541Z,1.20
2018-12-14T00:42:52.265Z,1.20
2018-12-14T00:45:26.429Z,1.20
2018-12-14T00:48:01.357Z,1.30
2018-12-14T00:50:35.762Z,1.40
2018-12-14T00:53:12.354Z,1.40
2018-12-14T00:55:46.831Z,1.50
2018-12-14T00:58:21.181Z,1.50
2018-12-14T01:00:55.536Z,1.50
2018-12-14T01:03:29.938Z,1.50
2018-12-14T01:06:04.451Z,1.40
2018-12-14T01:08:39.469Z,1.40
2018-12-14T01:11:19.442Z,1.30
2018-12-14T01:13:55.479Z,1.30
2018-12-14T01:16:32.246Z,1.30
2018-12-14T01:19:06.621Z,1.30
2018-12-14T01:21:41.115Z,1.30
2018-12-14T01:24:15.396Z,1.20
2018-12-14T01:26:49.726Z,1.20
2018-12-14T01:29:23.974Z,1.30
2018-12-14T01:31:58.209Z,1.30
2018-12-14T01:34:32.546Z,1.30
2018-12-14T01:37:06.865Z,1.20
2018-12-14T01:39:41.221Z,1.20
2018-12-14T01:42:15.449Z,1.30
2018-12-14T01:44:49.614Z,1.30
2018-12-14T01:47:24.083Z,1.30
2018-12-14T01:49:58.352Z,1.40
2018-12-14T01:52:33.032Z,1.40
2018-12-14T01:55:07.718Z,1.40
2018-12-14T01:57:42.149Z,1.40
2018-12-14T02:00:16.587Z,1.40
2018-12-14T02:02:50.930Z,1.40
2018-12-14T02:05:25.414Z,1.50
2018-12-14T02:07:59.739Z,1.40
2018-12-14T02:10:34.000Z,1.40
2018-12-14T02:13:08.409Z,1.40
2018-12-14T02:15:42.797Z,1.40
2018-12-14T02:18:18.121Z,1.40
2018-12-14T02:20:52.488Z,1.40
2018-12-14T02:23:26.791Z,1.40
2018-12-14T02:26:01.111Z,1.40
2018-12-14T02:28:35.517Z,1.30
2018-12-14T02:31:09.742Z,1.20
2018-12-14T02:33:44.122Z,1.20
2018-12-14T02:36:18.341Z,1.20
2018-12-14T02:38:52.709Z,1.10
2018-12-14T02:41:26.972Z,1.10
2018-12-14T02:44:01.415Z,1.10
2018-12-14T02:46:35.753Z,1.10
2018-12-14T02:49:10.108Z,1.00
2018-12-14T02:51:44.546Z,1.00
2018-12-14T02:54:18.834Z,1.00
2018-12-14T02:56:53.134Z,0.90
2018-12-14T02:59:27.739Z,0.80
2018-12-14T03:02:02.000Z,0.80
2018-12-14T03:04:36.546Z,0.80
2018-12-14T03:07:10.943Z,0.80
2018-12-14T03:09:45.477Z,0.80
2018-12-14T03:12:26.509Z,0.90
2018-12-14T03:14:56.358Z,0.80
2018-12-14T03:17:30.622Z,0.90
2018-12-14T03:20:05.494Z,0.80
2018-12-14T03:22:39.982Z,0.80
2018-12-14T03:25:14.279Z,0.80
2018-12-14T03:27:48.738Z,0.90
2018-12-14T03:30:23.053Z,0.90
2018-12-14T03:32:57.578Z,0.90
2018-12-14T03:35:32.102Z,1.00
2018-12-14T03:38:06.374Z,1.10
2018-12-14T03:40:40.837Z,1.10
2018-12-14T03:43:15.328Z,1.20
2018-12-14T03:45:49.483Z,1.20
2018-12-14T03:48:23.885Z,1.20
2018-12-14T03:50:58.295Z,1.20
2018-12-14T03:53:32.841Z,1.20
2018-12-14T03:56:07.216Z,1.20
2018-12-14T03:58:41.664Z,1.20
2018-12-14T04:01:16.058Z,1.10
2018-12-14T04:03:50.533Z,1.10
2018-12-14T04:06:25.018Z,1.10
2018-12-14T04:08:59.222Z,1.20
2018-12-14T04:11:33.713Z,1.20
2018-12-14T04:14:08.022Z,1.30
2018-12-14T04:16:42.397Z,1.30
2018-12-14T04:19:16.679Z,1.30
2018-12-14T04:21:51.229Z,1.30
2018-12-14T04:24:25.519Z,1.30
2018-12-14T04:27:00.029Z,1.30
2018-12-14T04:29:34.337Z,1.30
2018-12-14T04:32:08.562Z,1.40
2018-12-14T04:34:42.889Z,1.40
2018-12-14T04:37:17.417Z,1.40
2018-12-14T04:39:51.823Z,1.50
2018-12-14T04:42:26.459Z,1.50
2018-12-14T04:45:00.861Z,1.50
2018-12-14T04:47:35.066Z,1.50
2018-12-14T04:50:10.530Z,1.50
2018-12-14T04:52:45.274Z,1.50
2018-12-14T04:55:19.739Z,1.50
2018-12-14T04:57:54.014Z,1.60
2018-12-14T05:00:28.485Z,1.60
2018-12-14T05:03:02.929Z,1.60
2018-12-14T05:05:37.176Z,1.60
2018-12-14T05:08:11.600Z,1.60
2018-12-14T05:10:46.538Z,1.60
2018-12-14T05:13:20.783Z,1.50
2018-12-14T05:15:55.081Z,1.50
2018-12-14T05:18:29.513Z,1.60
2018-12-14T05:21:03.773Z,1.60
2018-12-14T05:23:38.169Z,1.60
2018-12-14T05:26:12.498Z,1.70
2018-12-14T05:28:46.898Z,1.70
2018-12-14T05:31:21.238Z,1.70
2018-12-14T05:33:55.578Z,1.70
2018-12-14T05:36:29.893Z,1.70
2018-12-14T05:39:06.389Z,1.70
2018-12-14T05:41:40.726Z,1.70
2018-12-14T05:44:15.331Z,1.70
2018-12-14T05:46:49.652Z,1.70
2018-12-14T05:49:24.028Z,1.80
2018-12-14T05:51:58.522Z,1.80
2018-12-14T05:54:32.754Z,1.80
2018-12-14T05:57:07.083Z,1.80
2018-12-14T05:59:41.342Z,1.80
2018-12-14T06:02:15.616Z,1.80
2018-12-14T06:04:50.017Z,1.80
2018-12-14T06:07:24.527Z,1.90
2018-12-14T06:09:58.861Z,1.80
2018-12-14T06:12:33.384Z,1.80
2018-12-14T06:15:07.714Z,1.90
2018-12-14T06:17:42.102Z,1.80
2018-12-14T06:20:16.653Z,1.90
2018-12-14T06:22:50.940Z,1.90
2018-12-14T06:25:25.634Z,1.90
2018-12-14T06:27:59.997Z,1.90
2018-12-14T06:30:34.319Z,1.90
2018-12-14T06:33:08.646Z,1.90
2018-12-14T06:35:42.994Z,1.90
2018-12-14T06:38:17.228Z,1.90
2018-12-14T06:40:51.457Z,1.90
2018-12-14T06:43:25.816Z,1.90
2018-12-14T06:46:00.141Z,2.00
2018-12-14T06:48:34.361Z,2.00
2018-12-14T06:51:09.142Z,2.00
2018-12-14T06:53:43.464Z,2.00
2018-12-14T06:56:17.693Z,2.00
2018-12-14T06:58:51.901Z,1.90
2018-12-14T07:01:26.130Z,2.00
2018-12-14T07:04:00.484Z,2.00
2018-12-14T07:06:34.907Z,2.00
2018-12-14T07:09:09.600Z,2.00
2018-12-14T07:11:44.044Z,2.00
2018-12-14T07:14:18.338Z,2.00
2018-12-14T07:16:52.869Z,2.00
2018-12-14T07:19:28.642Z,2.00
2018-12-14T07:22:03.195Z,2.00
2018-12-14T07:24:37.592Z,2.00
2018-12-14T07:27:11.826Z,2.00
2018-12-14T07:29:52.944Z,2.00
2018-12-14T07:32:27.453Z,2.10
2018-12-14T07:35:01.906Z,2.10
2018-12-14T07:37:36.093Z,2.10
2018-12-14T07:40:10.310Z,2.10
2018-12-14T07:42:44.741Z,2.10
2018-12-14T07:45:19.359Z,2.10
2018-12-14T07:47:53.837Z,2.10
2018-12-14T07:50:28.458Z,2.20
2018-12-14T07:53:09.011Z,2.10
2018-12-14T07:55:39.331Z,2.20
2018-12-14T07:58:14.863Z,2.20
2018-12-14T08:00:49.273Z,2.10
2018-12-14T08:03:23.604Z,2.20
2018-12-14T08:05:59.197Z,2.20
2018-12-14T08:08:33.547Z,2.20
2018-12-14T08:11:08.577Z,2.20
2018-12-14T08:13:42.973Z,2.30
2018-12-14T08:16:17.385Z,2.30
2018-12-14T08:18:51.785Z,2.30
2018-12-14T08:21:26.003Z,2.30
2018-12-14T08:24:00.238Z,2.30
2018-12-14T08:26:34.573Z,2.30
2018-12-14T08:29:08.793Z,2.30
2018-12-14T08:31:43.067Z,2.40
2018-12-14T08:34:19.122Z,2.40
2018-12-14T08:36:53.421Z,2.40
2018-12-14T08:39:27.998Z,2.40
2018-12-14T08:42:02.247Z,2.40
2018-12-14T08:44:36.661Z,2.50
2018-12-14T08:47:11.028Z,2.50
2018-12-14T08:49:45.868Z,2.50
2018-12-14T08:52:20.367Z,2.60
2018-12-14T08:54:54.809Z,2.60
2018-12-14T08:57:29.174Z,2.60
2018-12-14T09:00:04.915Z,2.60
2018-12-14T09:02:39.384Z,2.50
2018-12-14T09:05:13.558Z,2.60
2018-12-14T09:07:47.813Z,2.60
2018-12-14T09:10:22.245Z,2.60
2018-12-14T09:12:56.850Z,2.60
2018-12-14T09:15:31.106Z,2.60
2018-12-14T09:18:05.475Z,2.60
2018-12-14T09:20:39.819Z,2.60
2018-12-14T09:23:15.170Z,2.70
2018-12-14T09:25:49.417Z,2.70
2018-12-14T09:28:23.917Z,2.70
2018-12-14T09:30:58.177Z,2.70
2018-12-14T09:33:34.182Z,2.80
2018-12-14T09:36:08.501Z,2.90
2018-12-14T09:38:42.892Z,2.80
2018-12-14T09:41:19.375Z,2.80
2018-12-14T09:43:54.489Z,2.90
2018-12-14T09:46:36.862Z,2.80
2018-12-14T09:49:07.335Z,2.80
2018-12-14T09:51:41.590Z,2.80
2018-12-14T09:54:17.004Z,2.70
2018-12-14T09:56:51.390Z,2.80
2018-12-14T09:59:25.726Z,2.70
2018-12-14T10:02:00.084Z,2.70
2018-12-14T10:04:34.333Z,2.70
2018-12-14T10:07:08.713Z,2.70
2018-12-14T10:09:44.534Z,2.70
2018-12-14T10:12:18.989Z,2.90
2018-12-14T10:14:53.604Z,2.90
2018-12-14T10:17:27.901Z,2.90
2018-12-14T10:20:02.306Z,2.90
2018-12-14T10:22:41.522Z,2.80
2018-12-14T10:25:14.789Z,2.80
2018-12-14T10:27:49.330Z,2.80
2018-12-14T10:30:23.878Z,2.80
2018-12-14T10:32:59.586Z,2.80
2018-12-14T10:35:33.866Z,2.80
2018-12-14T10:38:08.258Z,2.80
2018-12-14T10:40:42.645Z,2.70
2018-12-14T10:43:17.027Z,2.70
2018-12-14T10:45:52.783Z,2.80
2018-12-14T10:48:27.390Z,2.80
2018-12-14T10:51:03.730Z,2.70
2018-12-14T10:53:38.194Z,2.90
2018-12-14T10:56:12.663Z,2.90
2018-12-14T10:58:47.265Z,2.80
2018-12-14T11:01:28.690Z,2.80
2018-12-14T11:04:02.962Z,2.70
2018-12-14T11:06:37.227Z,2.70
2018-12-14T11:09:11.718Z,2.80
2018-12-14T11:11:46.269Z,2.80
2018-12-14T11:14:20.673Z,2.90
2018-12-14T11:16:54.965Z,2.80
2018-12-14T11:19:29.168Z,2.80
2018-12-14T11:22:03.538Z,2.80
2018-12-14T11:24:37.815Z,2.90
2018-12-14T11:27:12.044Z,2.90
2018-12-14T11:29:46.447Z,2.90
2018-12-14T11:32:20.667Z,2.90
2018-12-14T11:34:55.542Z,2.80
2018-12-14T11:37:29.901Z,2.90
2018-12-14T11:40:05.737Z,2.90
2018-12-14T11:42:40.041Z,2.80
2018-12-14T11:45:14.376Z,2.90
2018-12-14T11:47:49.851Z,2.90
2018-12-14T11:50:24.145Z,2.90
2018-12-14T11:52:58.345Z,2.90
2018-12-14T11:55:32.795Z,2.90
2018-12-14T11:58:07.313Z,2.90
2018-12-14T12:00:42.905Z,2.80
2018-12-14T12:03:17.446Z,2.90
2018-12-14T12:05:51.948Z,2.80
2018-12-14T12:08:27.805Z,2.90
2018-12-14T12:11:02.021Z,3.00
2018-12-14T12:13:36.266Z,3.00
2018-12-14T12:16:11.095Z,3.00
2018-12-14T12:18:45.272Z,3.00
2018-12-14T12:21:19.870Z,3.00
2018-12-14T12:23:55.392Z,3.00
2018-12-14T12:26:30.330Z,2.90
2018-12-14T12:29:04.762Z,2.90
2018-12-14T12:31:39.037Z,2.90
2018-12-14T12:34:13.447Z,2.80
2018-12-14T12:36:47.681Z,2.80
2018-12-14T12:39:23.266Z,2.80
2018-12-14T12:41:57.597Z,2.80
2018-12-14T12:44:33.618Z,2.90
2018-12-14T12:47:08.410Z,2.80
2018-12-14T12:49:42.941Z,2.80
2018-12-14T12:52:17.361Z,2.80
2018-12-14T12:54:51.561Z,2.80
2018-12-14T12:57:26.058Z,2.70
2018-12-14T13:00:00.391Z,2.80
2018-12-14T13:02:34.996Z,2.80
2018-12-14T13:05:09.455Z,4.60
2018-12-14T13:07:43.757Z,5.10
2018-12-14T13:10:18.501Z,5.10
2018-12-14T13:12:52.784Z,5.20
2018-12-14T13:15:27.138Z,5.70
2018-12-14T13:18:01.414Z,6.10
2018-12-14T13:20:35.824Z,6.30
2018-12-14T13:23:10.266Z,5.10
2018-12-14T13:25:45.587Z,4.40
2018-12-14T13:28:22.461Z,3.90
2018-12-14T13:30:56.762Z,3.50
2018-12-14T13:33:32.427Z,3.20
2018-12-14T13:36:06.932Z,3.00
2018-12-14T13:38:41.277Z,2.90
2018-12-14T13:41:15.835Z,2.90
2018-12-14T13:43:51.121Z,2.80
2018-12-14T13:46:25.669Z,2.80
2018-12-14T13:49:02.890Z,2.80
2018-12-14T13:51:37.630Z,2.80
2018-12-14T13:54:11.849Z,2.90
2018-12-14T13:56:46.240Z,2.80
2018-12-14T13:59:20.453Z,2.80
2018-12-14T14:01:55.907Z,2.80
2018-12-14T14:04:30.258Z,2.80
2018-12-14T14:07:04.613Z,2.80
2018-12-14T14:09:40.997Z,2.80
2018-12-14T14:12:15.623Z,2.80
2018-12-14T14:14:53.028Z,2.80
2018-12-14T14:17:26.282Z,2.90
2018-12-14T14:20:00.765Z,2.80
2018-12-14T14:22:35.093Z,2.80
2018-12-14T14:25:09.522Z,2.80
2018-12-14T14:27:43.878Z,2.80
2018-12-14T14:30:18.357Z,2.80
2018-12-14T14:32:52.762Z,2.80
2018-12-14T14:35:31.085Z,2.80
2018-12-14T14:38:05.383Z,2.80
2018-12-14T14:40:39.573Z,2.80
2018-12-14T14:43:13.973Z,2.70
2018-12-14T14:45:48.331Z,2.70
2018-12-14T14:48:23.474Z,2.80
2018-12-14T14:50:57.713Z,2.80
2018-12-14T14:53:32.058Z,2.80
2018-12-14T14:56:07.418Z,2.80
2018-12-14T14:58:41.621Z,2.70
2018-12-14T15:01:17.682Z,2.80
2018-12-14T15:03:52.037Z,2.80
2018-12-14T15:06:26.261Z,2.70
2018-12-14T15:09:01.008Z,2.80
2018-12-14T15:11:36.348Z,2.80
2018-12-14T15:14:10.577Z,2.80
2018-12-14T15:16:44.901Z,2.70
2018-12-14T15:19:20.986Z,2.70
2018-12-14T15:21:55.295Z,2.70
2018-12-14T15:24:29.619Z,2.80
2018-12-14T15:27:04.117Z,2.80
2018-12-14T15:29:38.509Z,2.70
2018-12-14T15:32:13.484Z,2.70
2018-12-14T15:34:47.817Z,2.70
2018-12-14T15:37:22.090Z,2.70
2018-12-14T15:39:56.579Z,2.70
2018-12-14T15:42:30.769Z,2.70
2018-12-14T15:45:05.770Z,2.70
2018-12-14T15:47:39.906Z,2.70
2018-12-14T15:50:14.302Z,2.80
2018-12-14T15:52:48.601Z,2.70
2018-12-14T15:55:23.021Z,2.70
2018-12-14T15:57:57.310Z,2.70
2018-12-14T16:00:31.764Z,2.70
2018-12-14T16:03:06.042Z,2.80
2018-12-14T16:05:41.487Z,2.70
2018-12-14T16:08:15.748Z,2.80
2018-12-14T16:10:50.611Z,2.80
2018-12-14T16:13:25.475Z,2.80
2018-12-14T16:15:59.838Z,2.80
2018-12-14T16:18:34.310Z,2.80
2018-12-14T16:21:08.557Z,2.80
2018-12-14T16:23:43.003Z,2.80
2018-12-14T16:26:17.410Z,2.80
2018-12-14T16:28:51.617Z,2.80
2018-12-14T16:31:25.985Z,2.80
2018-12-14T16:34:00.203Z,2.80
2018-12-14T16:36:34.649Z,2.90
2018-12-14T16:39:09.157Z,2.90
2018-12-14T16:41:43.540Z,2.80
2018-12-14T16:44:17.825Z,2.80
2018-12-14T16:46:52.125Z,2.80
2018-12-14T16:49:27.554Z,2.80
2018-12-14T16:52:01.934Z,2.80
2018-12-14T16:54:37.225Z,2.80
2018-12-14T16:57:11.499Z,2.80
2018-12-14T16:59:45.808Z,2.80
2018-12-14T17:02:20.313Z,2.80
2018-12-14T17:04:56.165Z,2.80
2018-12-14T17:07:30.557Z,2.80
2018-12-14T17:10:05.533Z,2.80
2018-12-14T17:12:40.634Z,2.80
2018-12-14T17:15:14.862Z,2.80
2018-12-14T17:17:50.818Z,2.80
2018-12-14T17:20:26.625Z,2.70
2018-12-14T17:23:01.029Z,2.80
2018-12-14T17:25:35.406Z,2.80
2018-12-14T17:28:09.856Z,2.80
2018-12-14T17:30:44.175Z,2.80
2018-12-14T17:33:18.563Z,2.80
2018-12-14T17:35:52.927Z,2.80
2018-12-14T17:38:28.153Z,2.90
2018-12-14T17:41:02.477Z,2.80
2018-12-14T17:43:37.857Z,2.90
2018-12-14T17:46:12.279Z,2.80
2018-12-14T17:48:46.620Z,2.80
2018-12-14T17:51:21.122Z,2.80
2018-12-14T17:53:57.183Z,2.90
2018-12-14T17:56:31.392Z,2.90
2018-12-14T17:59:05.977Z,2.90
2018-12-14T18:01:40.367Z,2.90
2018-12-14T18:04:14.622Z,2.90
2018-12-14T18:06:48.838Z,3.00
2018-12-14T18:09:23.254Z,3.00
2018-12-14T18:11:57.475Z,3.00
2018-12-14T18:14:31.841Z,2.90
2018-12-14T18:17:06.186Z,2.90
2018-12-14T18:19:40.577Z,2.90
2018-12-14T18:22:15.057Z,2.90
2018-12-14T18:24:49.646Z,2.90
2018-12-14T18:27:24.141Z,2.90
2018-12-14T18:29:59.192Z,3.00
2018-12-14T18:32:33.465Z,2.90
2018-12-14T18:35:08.190Z,3.00
2018-12-14T18:37:42.462Z,3.10
2018-12-14T18:40:16.989Z,3.10
2018-12-14T18:42:51.533Z,3.10
2018-12-14T18:45:25.771Z,3.10
2018-12-14T18:47:59.986Z,3.10
2018-12-14T18:50:34.441Z,3.10
2018-12-14T18:53:08.805Z,3.10
2018-12-14T18:55:43.217Z,3.10
2018-12-14T18:58:17.678Z,3.00
2018-12-14T19:00:51.979Z,3.10
2018-12-14T19:03:26.321Z,3.10
2018-12-14T19:06:00.822Z,3.10
2018-12-14T19:08:35.257Z,3.00
2018-12-14T19:11:09.936Z,3.00
2018-12-14T19:13:44.372Z,3.00
2018-12-14T19:16:18.766Z,3.10
2018-12-14T19:18:53.053Z,3.10
2018-12-14T19:21:27.422Z,3.00
2018-12-14T19:24:01.721Z,3.00
2018-12-14T19:26:36.079Z,3.00
2018-12-14T19:29:10.430Z,3.00
2018-12-14T19:31:45.729Z,3.00
2018-12-14T19:34:20.258Z,3.10
2018-12-14T19:36:54.485Z,3.00
2018-12-14T19:39:29.048Z,2.90
2018-12-14T19:42:03.613Z,3.00
2018-12-14T19:44:38.263Z,2.90
2018-12-14T19:47:13.146Z,2.90
2018-12-14T19:49:47.567Z,2.90
2018-12-14T19:52:22.117Z,2.90
2018-12-14T19:54:56.558Z,2.90
2018-12-14T19:57:31.029Z,3.00
2018-12-14T20:00:07.110Z,3.00
2018-12-14T20:02:41.643Z,3.00
2018-12-14T20:05:15.905Z,3.00
2018-12-14T20:07:50.204Z,3.00
2018-12-14T20:10:24.616Z,3.00
2018-12-14T20:12:58.825Z,3.00
2018-12-14T20:15:33.150Z,3.10
2018-12-14T20:18:07.549Z,3.00
2018-12-14T20:20:41.869Z,3.00
2018-12-14T20:23:16.277Z,3.10
2018-12-14T20:25:50.449Z,3.00
2018-12-14T20:28:24.842Z,3.00
2018-12-14T20:30:59.165Z,3.00
2018-12-14T20:33:33.526Z,3.00
2018-12-14T20:36:08.001Z,3.00
2018-12-14T20:38:42.297Z,3.00
2018-12-14T20:41:16.661Z,3.00
2018-12-14T20:43:50.924Z,3.00
2018-12-14T20:46:25.372Z,3.00
2018-12-14T20:48:59.807Z,3.00
2018-12-14T20:51:34.149Z,2.90
2018-12-14T20:54:08.561Z,2.90
2018-12-14T20:56:42.862Z,3.00
2018-12-14T20:59:17.081Z,2.90
2018-12-14T21:01:51.499Z,2.90
2018-12-14T21:04:25.862Z,2.90
2018-12-14T21:07:00.429Z,2.80
2018-12-14T21:09:34.798Z,2.80
2018-12-14T21:12:09.122Z,2.90
2018-12-14T21:14:43.493Z,2.90
2018-12-14T21:17:17.857Z,2.90
2018-12-14T21:19:52.268Z,2.80
2018-12-14T21:22:26.541Z,2.80
2018-12-14T21:25:01.037Z,2.90
2018-12-14T21:27:37.243Z,2.90
2018-12-14T21:30:11.610Z,2.90
2018-12-14T21:32:45.821Z,2.80
2018-12-14T21:35:20.242Z,2.90
2018-12-14T21:37:54.576Z,2.80
2018-12-14T21:40:28.978Z,2.80
2018-12-14T21:43:04.894Z,2.80
2018-12-14T21:45:39.333Z,2.90
2018-12-14T21:48:13.767Z,2.80
2018-12-14T21:50:48.288Z,2.80
2018-12-14T21:53:23.190Z,2.90
2018-12-14T21:55:57.553Z,2.90
2018-12-14T21:58:32.034Z,2.90
2018-12-14T22:01:06.686Z,2.80
2018-12-14T22:03:40.925Z,2.90
2018-12-14T22:06:15.206Z,2.90
2018-12-14T22:08:49.638Z,2.90
2018-12-14T22:11:23.884Z,2.90
2018-12-14T22:13:58.146Z,3.00
2018-12-14T22:16:38.975Z,3.00
2018-12-14T22:19:09.841Z,2.90
2018-12-14T22:21:44.245Z,2.90
2018-12-14T22:24:18.533Z,2.90
2018-12-14T22:26:53.006Z,2.90
2018-12-14T22:29:27.318Z,2.90
2018-12-14T22:32:01.701Z,2.90
2018-12-14T22:34:36.234Z,2.90
2018-12-14T22:37:11.210Z,2.80
2018-12-14T22:39:45.630Z,2.90
2018-12-14T22:42:20.014Z,2.90
2018-12-14T22:44:54.469Z,2.90
2018-12-14T22:47:28.863Z,2.90
2018-12-14T22:50:03.598Z,2.90
2018-12-14T22:52:37.935Z,2.80
2018-12-14T22:55:12.530Z,2.80
2018-12-14T22:57:46.911Z,2.90
2018-12-14T23:00:21.405Z,2.90
2018-12-14T23:02:55.741Z,2.80
2018-12-14T23:05:29.992Z,2.80
2018-12-14T23:08:04.341Z,2.90
2018-12-14T23:10:38.970Z,2.90
2018-12-14T23:13:13.429Z,2.90
2018-12-14T23:15:47.778Z,2.90
2018-12-14T23:18:22.246Z,2.80
2018-12-14T23:20:56.686Z,2.90
2018-12-14T23:23:31.103Z,2.90
2018-12-14T23:26:05.365Z,2.90
2018-12-14T23:28:39.625Z,2.80
2018-12-14T23:31:14.050Z,2.80
2018-12-14T23:33:48.237Z,2.80
2018-12-14T23:36:22.597Z,2.80
2018-12-14T23:38:56.797Z,2.70
2018-12-14T23:41:31.236Z,2.70
2018-12-14T23:44:05.494Z,2.70
2018-12-14T23:46:39.826Z,2.60
2018-12-14T23:49:14.229Z,2.60
2018-12-14T23:51:48.523Z,2.60
2018-12-14T23:54:22.980Z,2.60
2018-12-14T23:56:57.329Z,2.70
2018-12-14T23:59:31.661Z,2.70
